createdAt,value
2018-10-11T00:00:55.174Z,13.10
2018-10-11T00:03:23.687Z,13.10
2018-10-11T00:05:51.755Z,13.20
2018-10-11T00:08:19.875Z,13.30
2018-10-11T00:10:48.035Z,13.30
2018-10-11T00:13:16.171Z,13.30
2018-10-11T00:15:44.289Z,13.10
2018-10-11T00:18:12.350Z,13.10
2018-10-11T00:20:40.512Z,13.10
2018-10-11T00:23:08.623Z,13.20
2018-10-11T00:25:36.756Z,13.00
2018-10-11T00:28:04.835Z,13.00
2018-10-11T00:30:32.936Z,13.00
2018-10-11T00:33:01.015Z,13.00
2018-10-11T00:35:29.144Z,13.00
2018-10-11T00:37:57.232Z,12.90
2018-10-11T00:40:25.466Z,12.80
2018-10-11T00:42:53.538Z,12.70
2018-10-11T00:45:21.614Z,12.60
2018-10-11T00:47:49.740Z,12.60
2018-10-11T00:50:17.874Z,12.50
2018-10-11T00:52:45.995Z,12.40
2018-10-11T00:55:14.105Z,12.30
2018-10-11T00:57:42.235Z,12.20
2018-10-11T01:00:10.311Z,12.20
2018-10-11T01:02:38.664Z,12.20
2018-10-11T01:05:07.071Z,12.20
2018-10-11T01:07:35.146Z,12.20
2018-10-11T01:10:03.313Z,12.20
2018-10-11T01:12:31.483Z,12.20
2018-10-11T01:14:59.584Z,12.20
2018-10-11T01:17:27.698Z,12.10
2018-10-11T01:19:55.832Z,12.10
2018-10-11T01:22:24.180Z,12.10
2018-10-11T01:24:52.271Z,12.10
2018-10-11T01:27:20.416Z,12.10
2018-10-11T01:29:48.612Z,12.10
2018-10-11T01:32:16.632Z,12.10
2018-10-11T01:34:44.749Z,12.10
2018-10-11T01:37:12.860Z,12.10
2018-10-11T01:39:40.977Z,12.20
2018-10-11T01:42:09.061Z,12.10
2018-10-11T01:44:37.142Z,12.10
2018-10-11T01:47:05.255Z,12.10
2018-10-11T01:49:33.420Z,12.10
2018-10-11T01:52:01.506Z,12.00
2018-10-11T01:54:29.586Z,12.00
2018-10-11T01:56:57.691Z,11.90
2018-10-11T01:59:25.767Z,11.90
2018-10-11T02:01:53.872Z,11.90
2018-10-11T02:04:22.268Z,11.90
2018-10-11T02:06:50.356Z,12.00
2018-10-11T02:09:18.458Z,11.90
2018-10-11T02:11:46.618Z,11.80
2018-10-11T02:14:14.711Z,11.70
2018-10-11T02:16:42.838Z,11.60
2018-10-11T02:19:10.973Z,11.50
2018-10-11T02:21:39.081Z,11.50
2018-10-11T02:24:07.736Z,11.50
2018-10-11T02:26:35.802Z,11.60
2018-10-11T02:29:03.917Z,11.50
2018-10-11T02:31:31.988Z,11.50
2018-10-11T02:34:00.047Z,11.40
2018-10-11T02:36:28.425Z,11.30
2018-10-11T02:38:56.519Z,11.30
2018-10-11T02:41:24.596Z,11.20
2018-10-11T02:43:52.722Z,11.10
2018-10-11T02:46:20.800Z,10.90
2018-10-11T02:48:48.894Z,10.90
2018-10-11T02:51:17.147Z,10.90
2018-10-11T02:53:45.252Z,10.80
2018-10-11T02:56:13.405Z,10.70
2018-10-11T02:58:53.039Z,10.60
2018-10-11T03:01:21.526Z,10.60
2018-10-11T03:03:52.604Z,10.70
2018-10-11T03:06:20.902Z,10.80
2018-10-11T03:08:49.005Z,10.80
2018-10-11T03:11:17.100Z,10.90
2018-10-11T03:13:45.278Z,10.80
2018-10-11T03:16:13.423Z,10.80
2018-10-11T03:18:41.507Z,10.70
2018-10-11T03:21:09.624Z,10.50
2018-10-11T03:23:37.704Z,10.50
2018-10-11T03:26:05.832Z,10.60
2018-10-11T03:28:34.312Z,10.50
2018-10-11T03:31:02.405Z,10.50
2018-10-11T03:33:30.484Z,10.50
2018-10-11T03:35:58.586Z,10.50
2018-10-11T03:38:26.660Z,10.50
2018-10-11T03:40:55.024Z,10.60
2018-10-11T03:43:23.104Z,10.60
2018-10-11T03:45:51.226Z,10.60
2018-10-11T03:48:19.328Z,10.60
2018-10-11T03:50:47.457Z,10.60
2018-10-11T03:53:15.571Z,10.50
2018-10-11T03:55:43.664Z,10.40
2018-10-11T03:58:11.789Z,10.30
2018-10-11T04:00:39.908Z,10.20
2018-10-11T04:03:07.984Z,10.10
2018-10-11T04:05:36.103Z,10.00
2018-10-11T04:08:04.163Z,9.90
2018-10-11T04:10:32.283Z,9.90
2018-10-11T04:13:00.432Z,9.90
2018-10-11T04:15:28.587Z,9.90
2018-10-11T04:17:56.671Z,9.90
2018-10-11T04:20:24.751Z,9.90
2018-10-11T04:22:52.817Z,9.90
2018-10-11T04:25:21.201Z,9.90
2018-10-11T04:27:49.960Z,10.00
2018-10-11T04:30:18.060Z,10.10
2018-10-11T04:32:46.184Z,10.10
2018-10-11T04:35:14.251Z,10.00
2018-10-11T04:37:42.333Z,9.90
2018-10-11T04:40:10.476Z,9.80
2018-10-11T04:42:38.675Z,9.70
2018-10-11T04:45:06.765Z,9.70
2018-10-11T04:47:34.947Z,9.70
2018-10-11T04:50:03.028Z,9.70
2018-10-11T04:52:31.106Z,9.70
2018-10-11T04:54:59.226Z,9.80
2018-10-11T04:57:27.335Z,9.90
2018-10-11T04:59:55.579Z,9.90
2018-10-11T05:02:23.660Z,9.70
2018-10-11T05:04:51.757Z,9.50
2018-10-11T05:07:19.952Z,9.30
2018-10-11T05:09:48.030Z,9.20
2018-10-11T05:12:16.132Z,9.30
2018-10-11T05:14:44.243Z,9.50
2018-10-11T05:17:12.442Z,9.50
2018-10-11T05:19:40.599Z,9.30
2018-10-11T05:22:08.660Z,9.20
2018-10-11T05:24:36.747Z,9.20
2018-10-11T05:27:04.863Z,9.20
2018-10-11T05:29:33.284Z,9.30
2018-10-11T05:32:01.364Z,9.40
2018-10-11T05:34:29.433Z,9.30
2018-10-11T05:36:57.545Z,9.30
2018-10-11T05:39:25.636Z,9.40
2018-10-11T05:41:53.747Z,9.40
2018-10-11T05:44:22.215Z,9.50
2018-10-11T05:46:51.379Z,9.50
2018-10-11T05:49:19.452Z,9.50
2018-10-11T05:51:47.982Z,9.40
2018-10-11T05:54:16.073Z,9.50
2018-10-11T05:56:45.278Z,9.50
2018-10-11T05:59:13.764Z,9.50
2018-10-11T06:01:41.852Z,9.40
2018-10-11T06:04:10.793Z,9.40
2018-10-11T06:06:39.266Z,9.40
2018-10-11T06:09:08.459Z,9.40
2018-10-11T06:11:36.639Z,9.50
2018-10-11T06:14:04.731Z,9.50
2018-10-11T06:16:32.872Z,9.50
2018-10-11T06:19:00.977Z,9.70
2018-10-11T06:21:29.288Z,9.80
2018-10-11T06:23:57.403Z,10.00
2018-10-11T06:26:25.497Z,10.20
2018-10-11T06:28:53.576Z,10.30
2018-10-11T06:31:21.688Z,10.50
2018-10-11T06:33:49.818Z,10.50
2018-10-11T06:36:17.892Z,10.60
2018-10-11T06:38:46.015Z,10.60
2018-10-11T06:41:14.243Z,10.80
2018-10-11T06:43:42.416Z,11.10
2018-10-11T06:46:10.544Z,11.40
2018-10-11T06:48:38.752Z,11.60
2018-10-11T06:51:06.864Z,11.90
2018-10-11T06:53:35.012Z,12.10
2018-10-11T06:56:03.156Z,12.20
2018-10-11T06:58:31.162Z,12.30
2018-10-11T07:00:59.263Z,12.60
2018-10-11T07:03:27.793Z,12.60
2018-10-11T07:05:55.870Z,12.60
2018-10-11T07:08:23.963Z,12.70
2018-10-11T07:10:52.132Z,12.90
2018-10-11T07:13:20.252Z,12.90
2018-10-11T07:15:48.330Z,13.00
2018-10-11T07:18:16.848Z,13.20
2018-10-11T07:20:45.118Z,13.30
2018-10-11T07:23:13.212Z,13.40
2018-10-11T07:25:41.454Z,13.50
2018-10-11T07:28:09.522Z,13.80
2018-10-11T07:30:37.641Z,14.00
2018-10-11T07:33:06.048Z,14.10
2018-10-11T07:35:34.153Z,14.30
2018-10-11T07:38:02.189Z,14.40
2018-10-11T07:40:30.377Z,14.60
2018-10-11T07:42:58.440Z,14.70
2018-10-11T07:45:26.807Z,14.90
2018-10-11T07:47:54.891Z,15.10
2018-10-11T07:50:23.031Z,15.40
2018-10-11T07:52:51.451Z,15.50
2018-10-11T07:55:19.519Z,15.60
2018-10-11T07:57:47.594Z,15.80
2018-10-11T08:00:15.732Z,15.90
2018-10-11T08:02:44.299Z,16.10
2018-10-11T08:05:12.424Z,16.20
2018-10-11T08:07:40.604Z,16.30
2018-10-11T08:10:08.768Z,16.50
2018-10-11T08:12:36.880Z,16.70
2018-10-11T08:15:05.441Z,16.90
2018-10-11T08:17:33.958Z,17.10
2018-10-11T08:20:01.704Z,17.30
2018-10-11T08:22:29.900Z,17.60
2018-10-11T08:24:58.479Z,17.80
2018-10-11T08:27:26.612Z,17.80
2018-10-11T08:29:54.581Z,17.90
2018-10-11T08:32:22.852Z,17.90
2018-10-11T08:34:50.914Z,18.10
2018-10-11T08:37:19.176Z,18.00
2018-10-11T08:39:47.291Z,18.10
2018-10-11T08:42:15.362Z,18.30
2018-10-11T08:44:43.501Z,18.50
2018-10-11T08:47:11.627Z,18.70
2018-10-11T08:49:39.725Z,18.90
2018-10-11T08:52:07.836Z,19.20
2018-10-11T08:54:41.479Z,19.20
2018-10-11T08:57:09.603Z,19.30
2018-10-11T08:59:37.694Z,19.40
2018-10-11T09:02:05.768Z,19.50
2018-10-11T09:04:33.890Z,19.50
2018-10-11T09:07:02.220Z,19.50
2018-10-11T09:09:30.329Z,19.50
2018-10-11T09:11:58.417Z,19.40
2018-10-11T09:14:26.476Z,19.40
2018-10-11T09:16:54.569Z,19.50
2018-10-11T09:19:22.639Z,19.70
2018-10-11T09:21:50.718Z,19.80
2018-10-11T09:24:18.833Z,19.80
2018-10-11T09:26:47.083Z,19.80
2018-10-11T09:29:15.291Z,19.90
2018-10-11T09:31:43.383Z,20.00
2018-10-11T09:34:11.536Z,20.10
2018-10-11T09:36:39.614Z,20.40
2018-10-11T09:39:08.799Z,20.60
2018-10-11T09:41:37.231Z,20.60
2018-10-11T09:44:05.290Z,20.60
2018-10-11T09:46:33.397Z,20.40
2018-10-11T09:49:01.881Z,20.20
2018-10-11T09:51:30.064Z,20.30
2018-10-11T09:53:58.131Z,20.40
2018-10-11T09:56:38.011Z,20.30
2018-10-11T09:59:06.098Z,20.50
2018-10-11T10:01:39.701Z,20.60
2018-10-11T10:04:07.763Z,20.70
2018-10-11T10:06:35.842Z,21.00
2018-10-11T10:09:05.478Z,21.10
2018-10-11T10:11:33.545Z,21.30
2018-10-11T10:14:02.053Z,21.40
2018-10-11T10:16:30.122Z,21.30
2018-10-11T10:18:58.245Z,21.30
2018-10-11T10:21:26.455Z,21.40
2018-10-11T10:23:54.403Z,21.60
2018-10-11T10:26:22.540Z,21.80
2018-10-11T10:28:50.624Z,21.90
2018-10-11T10:31:18.720Z,21.70
2018-10-11T10:33:46.879Z,21.40
2018-10-11T10:36:14.915Z,21.40
2018-10-11T10:38:43.015Z,21.60
2018-10-11T10:41:11.278Z,22.00
2018-10-11T10:43:39.384Z,21.90
2018-10-11T10:46:07.491Z,22.00
2018-10-11T10:48:35.629Z,21.80
2018-10-11T10:51:03.716Z,21.80
2018-10-11T10:53:31.762Z,22.10
2018-10-11T10:55:59.868Z,22.20
2018-10-11T10:58:27.936Z,22.10
2018-10-11T11:00:56.008Z,22.20
2018-10-11T11:03:24.106Z,22.30
2018-10-11T11:05:52.171Z,22.40
2018-10-11T11:08:20.278Z,22.50
2018-10-11T11:10:48.355Z,22.50
2018-10-11T11:13:16.454Z,22.30
2018-10-11T11:15:44.543Z,22.20
2018-10-11T11:18:12.632Z,22.20
2018-10-11T11:20:40.753Z,22.30
2018-10-11T11:23:08.847Z,22.40
2018-10-11T11:25:36.959Z,22.40
2018-10-11T11:28:05.071Z,22.30
2018-10-11T11:30:33.171Z,22.30
2018-10-11T11:33:01.241Z,22.20
2018-10-11T11:35:29.357Z,22.10
2018-10-11T11:37:57.494Z,22.30
2018-10-11T11:40:25.553Z,22.40
2018-10-11T11:42:53.661Z,22.50
2018-10-11T11:45:21.738Z,22.60
2018-10-11T11:47:49.809Z,22.90
2018-10-11T11:50:17.908Z,22.80
2018-10-11T11:52:46.006Z,22.90
2018-10-11T11:55:14.099Z,23.00
2018-10-11T11:57:42.175Z,22.90
2018-10-11T12:00:10.298Z,22.70
2018-10-11T12:02:38.394Z,22.80
2018-10-11T12:05:06.564Z,23.00
2018-10-11T12:07:34.647Z,22.90
2018-10-11T12:10:02.925Z,22.90
2018-10-11T12:13:05.937Z,23.10
2018-10-11T12:15:34.765Z,23.20
2018-10-11T12:18:03.644Z,23.20
2018-10-11T12:20:32.799Z,23.20
2018-10-11T12:23:02.157Z,23.20
2018-10-11T12:25:30.531Z,23.30
2018-10-11T12:27:58.668Z,23.40
2018-10-11T12:30:26.806Z,23.50
2018-10-11T12:32:54.927Z,23.40
2018-10-11T12:35:24.002Z,23.40
2018-10-11T12:37:52.084Z,23.60
2018-10-11T12:40:20.295Z,23.70
2018-10-11T12:42:48.429Z,23.80
2018-10-11T12:45:17.070Z,23.80
2018-10-11T12:47:45.117Z,23.60
2018-10-11T12:50:13.458Z,23.60
2018-10-11T12:52:41.992Z,23.60
2018-10-11T12:55:11.274Z,23.60
2018-10-11T12:57:39.350Z,23.60
2018-10-11T13:00:11.043Z,23.60
2018-10-11T13:02:39.270Z,23.60
2018-10-11T13:05:07.372Z,23.50
2018-10-11T13:07:35.503Z,23.50
2018-10-11T13:10:04.015Z,23.50
2018-10-11T13:12:32.201Z,23.50
2018-10-11T13:15:00.294Z,23.40
2018-10-11T13:20:03.516Z,23.60
2018-10-11T13:22:31.592Z,23.50
2018-10-11T13:24:59.698Z,23.50
2018-10-11T13:27:27.804Z,23.60
2018-10-11T13:29:55.891Z,23.50
2018-10-11T13:32:24.008Z,23.50
2018-10-11T13:34:52.144Z,23.40
2018-10-11T13:37:20.203Z,23.30
2018-10-11T13:39:52.023Z,23.30
2018-10-11T13:42:16.338Z,23.20
2018-10-11T13:44:44.434Z,23.30
2018-10-11T13:47:12.558Z,23.20
2018-10-11T13:49:40.653Z,23.20
2018-10-11T13:52:13.191Z,23.20
2018-10-11T13:54:36.881Z,23.20
2018-10-11T13:57:04.996Z,23.20
2018-10-11T13:59:33.093Z,23.20
2018-10-11T14:02:01.185Z,23.20
2018-10-11T14:04:29.311Z,23.20
2018-10-11T14:06:57.798Z,23.20
2018-10-11T14:09:25.885Z,23.10
2018-10-11T14:11:54.618Z,23.10
2018-10-11T14:14:22.717Z,23.20
2018-10-11T14:16:50.783Z,23.10
2018-10-11T14:19:18.964Z,23.10
2018-10-11T14:21:47.069Z,23.10
2018-10-11T14:24:15.223Z,23.10
2018-10-11T14:26:43.260Z,23.00
2018-10-11T14:29:11.352Z,23.00
2018-10-11T14:31:39.433Z,23.00
2018-10-11T14:34:08.047Z,23.00
2018-10-11T14:36:36.194Z,23.00
2018-10-11T14:39:06.273Z,23.00
2018-10-11T14:41:34.401Z,23.00
2018-10-11T14:44:02.619Z,23.00
2018-10-11T14:46:30.740Z,23.00
2018-10-11T14:48:58.872Z,22.90
2018-10-11T14:51:27.006Z,22.90
2018-10-11T14:53:57.913Z,22.90
2018-10-11T14:56:23.391Z,22.90
2018-10-11T14:58:51.466Z,22.90
2018-10-11T15:01:19.558Z,22.90
2018-10-11T15:03:47.633Z,22.90
2018-10-11T15:06:15.736Z,22.90
2018-10-11T15:08:43.825Z,22.90
2018-10-11T15:11:11.988Z,22.70
2018-10-11T15:13:40.081Z,22.60
2018-10-11T15:16:08.444Z,22.50
2018-10-11T15:18:36.591Z,22.50
2018-10-11T15:21:04.669Z,22.40
2018-10-11T15:23:32.770Z,22.40
2018-10-11T15:26:00.839Z,22.40
2018-10-11T15:28:28.957Z,22.30
2018-10-11T15:30:57.026Z,22.20
2018-10-11T15:33:25.125Z,22.10
2018-10-11T15:35:53.210Z,22.00
2018-10-11T15:38:21.316Z,21.90
2018-10-11T15:40:49.413Z,21.70
2018-10-11T15:43:17.491Z,21.60
2018-10-11T15:45:45.647Z,21.50
2018-10-11T15:48:13.783Z,21.40
2018-10-11T15:50:41.840Z,21.30
2018-10-11T15:53:09.953Z,21.30
2018-10-11T15:55:38.316Z,21.20
2018-10-11T15:58:06.412Z,21.10
2018-10-11T16:00:34.495Z,20.90
2018-10-11T16:03:02.633Z,20.90
2018-10-11T16:05:30.755Z,20.80
2018-10-11T16:07:58.838Z,20.80
2018-10-11T16:10:26.931Z,20.70
2018-10-11T16:12:55.048Z,20.60
2018-10-11T16:15:23.237Z,20.60
2018-10-11T16:17:51.396Z,20.60
2018-10-11T16:20:19.491Z,20.50
2018-10-11T16:22:47.593Z,20.40
2018-10-11T16:25:15.697Z,20.40
2018-10-11T16:27:43.795Z,20.30
2018-10-11T16:30:11.920Z,20.10
2018-10-11T16:32:39.994Z,20.00
2018-10-11T16:35:08.109Z,19.90
2018-10-11T16:37:36.362Z,19.80
2018-10-11T16:40:04.497Z,19.80
2018-10-11T16:42:32.667Z,19.80
2018-10-11T16:45:00.783Z,19.70
2018-10-11T16:47:29.055Z,19.60
2018-10-11T16:49:57.174Z,19.60
2018-10-11T16:52:25.231Z,19.50
2018-10-11T16:54:53.332Z,19.60
2018-10-11T16:57:21.401Z,19.70
2018-10-11T16:59:49.469Z,19.70
2018-10-11T17:02:17.596Z,19.60
2018-10-11T17:04:45.698Z,19.60
2018-10-11T17:07:13.763Z,19.60
2018-10-11T17:09:41.908Z,19.60
2018-10-11T17:12:09.967Z,19.60
2018-10-11T17:14:38.039Z,19.60
2018-10-11T17:17:06.160Z,19.50
2018-10-11T17:19:34.241Z,19.40
2018-10-11T17:22:02.345Z,19.30
2018-10-11T17:24:30.423Z,19.20
2018-10-11T17:26:58.524Z,19.20
2018-10-11T17:29:26.647Z,19.20
2018-10-11T17:31:54.728Z,19.00
2018-10-11T17:34:22.843Z,19.00
2018-10-11T17:36:50.913Z,19.00
2018-10-11T17:39:19.177Z,18.90
2018-10-11T17:41:47.251Z,19.00
2018-10-11T17:44:15.353Z,19.00
2018-10-11T17:46:43.454Z,19.00
2018-10-11T17:49:11.535Z,19.00
2018-10-11T17:51:39.994Z,18.90
2018-10-11T17:54:08.079Z,18.90
2018-10-11T17:56:36.245Z,18.90
2018-10-11T17:59:04.308Z,18.90
2018-10-11T18:01:32.419Z,18.90
2018-10-11T18:04:00.546Z,18.90
2018-10-11T18:06:28.915Z,18.90
2018-10-11T18:08:57.119Z,19.00
2018-10-11T18:11:25.237Z,19.00
2018-10-11T18:13:53.709Z,18.90
2018-10-11T18:16:21.868Z,18.90
2018-10-11T18:18:49.949Z,18.90
2018-10-11T18:21:18.049Z,19.00
2018-10-11T18:23:46.202Z,18.90
2018-10-11T18:26:14.264Z,18.80
2018-10-11T18:28:42.380Z,18.80
2018-10-11T18:31:10.525Z,18.70
2018-10-11T18:33:38.605Z,18.70
2018-10-11T18:36:06.748Z,18.60
2018-10-11T18:38:34.886Z,18.70
2018-10-11T18:41:02.980Z,18.60
2018-10-11T18:43:31.096Z,18.60
2018-10-11T18:45:59.235Z,18.50
2018-10-11T18:48:27.316Z,18.40
2018-10-11T18:50:55.703Z,18.30
2018-10-11T18:53:23.776Z,18.30
2018-10-11T18:55:51.944Z,18.30
2018-10-11T18:58:20.056Z,18.30
2018-10-11T19:00:48.136Z,18.20
2018-10-11T19:03:16.393Z,18.00
2018-10-11T19:05:44.674Z,18.00
2018-10-11T19:08:12.808Z,18.10
2018-10-11T19:10:40.896Z,18.10
2018-10-11T19:13:09.023Z,18.10
2018-10-11T19:15:37.131Z,18.10
2018-10-11T19:18:05.271Z,18.20
2018-10-11T19:20:33.349Z,18.20
2018-10-11T19:23:01.428Z,18.10
2018-10-11T19:25:29.564Z,18.10
2018-10-11T19:27:57.683Z,18.10
2018-10-11T19:30:25.760Z,18.10
2018-10-11T19:32:53.832Z,18.10
2018-10-11T19:35:21.938Z,18.00
2018-10-11T19:37:50.015Z,18.00
2018-10-11T19:40:18.136Z,18.00
2018-10-11T19:42:46.252Z,17.90
2018-10-11T19:45:14.341Z,17.80
2018-10-11T19:47:42.508Z,17.60
2018-10-11T19:50:10.591Z,17.60
2018-10-11T19:52:38.699Z,17.50
2018-10-11T19:55:06.824Z,17.50
2018-10-11T19:57:34.897Z,17.50
2018-10-11T20:00:03.282Z,17.40
2018-10-11T20:02:31.398Z,17.20
2018-10-11T20:04:59.458Z,17.10
2018-10-11T20:07:27.566Z,17.10
2018-10-11T20:09:55.646Z,17.20
2018-10-11T20:12:23.825Z,17.20
2018-10-11T20:14:51.938Z,17.10
2018-10-11T20:17:20.135Z,17.00
2018-10-11T20:19:48.142Z,16.90
2018-10-11T20:22:16.223Z,16.80
2018-10-11T20:24:44.352Z,16.80
2018-10-11T20:27:12.423Z,16.90
2018-10-11T20:29:40.695Z,16.80
2018-10-11T20:32:09.474Z,16.80
2018-10-11T20:34:37.537Z,16.80
2018-10-11T20:37:05.660Z,16.80
2018-10-11T20:39:33.747Z,16.90
2018-10-11T20:42:01.870Z,16.90
2018-10-11T20:44:30.148Z,16.90
2018-10-11T20:46:58.223Z,16.80
2018-10-11T20:49:26.289Z,16.80
2018-10-11T20:51:54.435Z,16.80
2018-10-11T20:54:22.499Z,16.80
2018-10-11T20:56:50.722Z,16.80
2018-10-11T20:59:18.830Z,16.80
2018-10-11T21:01:46.942Z,16.90
2018-10-11T21:04:15.036Z,16.90
2018-10-11T21:06:43.209Z,16.80
2018-10-11T21:09:12.480Z,16.80
2018-10-11T21:11:40.943Z,16.70
2018-10-11T21:14:09.033Z,16.70
2018-10-11T21:16:37.328Z,16.70
2018-10-11T21:19:05.938Z,16.60
2018-10-11T21:21:34.043Z,16.50
2018-10-11T21:24:02.424Z,16.40
2018-10-11T21:26:30.505Z,16.40
2018-10-11T21:28:59.228Z,16.40
2018-10-11T21:31:27.370Z,16.30
2018-10-11T21:33:55.675Z,16.20
2018-10-11T21:36:23.751Z,16.20
2018-10-11T21:38:51.832Z,16.20
2018-10-11T21:41:19.944Z,16.20
2018-10-11T21:43:48.008Z,16.20
2018-10-11T21:46:16.171Z,16.20
2018-10-11T21:48:44.233Z,16.20
2018-10-11T21:51:12.599Z,16.10
2018-10-11T21:53:40.762Z,16.20
2018-10-11T21:56:08.825Z,16.10
2018-10-11T21:58:36.927Z,16.10
2018-10-11T22:01:10.437Z,16.10
2018-10-11T22:03:38.819Z,16.10
2018-10-11T22:06:07.121Z,16.20
2018-10-11T22:08:35.332Z,16.20
2018-10-11T22:11:03.385Z,16.30
2018-10-11T22:13:31.482Z,16.30
2018-10-11T22:15:59.647Z,16.20
2018-10-11T22:18:27.728Z,16.30
2018-10-11T22:20:56.220Z,16.30
2018-10-11T22:23:24.274Z,16.30
2018-10-11T22:25:52.353Z,16.30
2018-10-11T22:28:20.473Z,16.30
2018-10-11T22:30:48.567Z,16.30
2018-10-11T22:33:16.636Z,16.40
2018-10-11T22:35:44.748Z,16.40
2018-10-11T22:38:12.833Z,16.40
2018-10-11T22:40:40.963Z,16.40
2018-10-11T22:43:09.063Z,16.40
2018-10-11T22:45:37.168Z,16.40
2018-10-11T22:48:05.226Z,16.30
2018-10-11T22:50:33.328Z,16.10
2018-10-11T22:53:01.397Z,16.00
2018-10-11T22:55:32.344Z,15.90
2018-10-11T22:58:01.277Z,15.70
2018-10-11T23:00:29.367Z,15.60
2018-10-11T23:02:57.455Z,15.60
2018-10-11T23:05:25.720Z,15.50
2018-10-11T23:07:53.815Z,15.60
2018-10-11T23:10:22.313Z,15.60
2018-10-11T23:12:50.498Z,15.60
2018-10-11T23:15:18.553Z,15.70
2018-10-11T23:17:46.691Z,15.80
2018-10-11T23:20:14.759Z,15.70
2018-10-11T23:22:42.825Z,15.70
2018-10-11T23:25:11.435Z,15.60
2018-10-11T23:27:43.786Z,15.50
2018-10-11T23:30:12.592Z,15.60
2018-10-11T23:32:41.716Z,15.50
2018-10-11T23:35:10.804Z,15.50
2018-10-11T23:37:40.217Z,15.50
2018-10-11T23:40:08.904Z,15.50
2018-10-11T23:42:37.369Z,15.40
2018-10-11T23:45:05.883Z,15.40
2018-10-11T23:47:33.961Z,15.30
2018-10-11T23:50:02.074Z,15.30
2018-10-11T23:52:30.180Z,15.30
2018-10-11T23:54:58.263Z,15.30
2018-10-11T23:57:26.384Z,15.30
2018-10-11T23:59:54.487Z,15.30
